Terminal Aerodrome Forecast
Issued by NWS Charleston, WV

Current Version | Previous Version | Text Only | Print | Product List | Glossary Off
Versions: 1 2 3 4 5 6 7 8 9 10 11 12 13 14 15 16 17 18 19 20 21 22 23 24 25

000
FTUS41 KRLX 010200 AAA
TAFBKW
TAF AMD
KBKW 010253Z 0103/0124 31007KT 5SM -SHRA BR OVC015
     FM010400 33006KT 5SM -SHRA OVC008
     FM011400 33006KT P6SM OVC012
     FM011600 33008G14KT P6SM BKN030=

USA.gov is the U.S. government's official web portal to all federal, state and local government web resources and services.